Sunday, May 27, 2018, 9:51 AM EDT
Back to Local

KSMQ, Somerville Somerset Airport

Location: Bedminster, NJ, United States Lat: 40.617
Local Time: 9:51 AM EDT (13:51 GMT) Lon: -74.667
Time Zone: US/Eastern Elev: 104 ft

Show me the last for .
Show Decoded

2018-05-27 08:53 METAR KSMQ 271253Z AUTO 08006KT 7SM -RA OVC012 18/18 A2997 RMK AO2 SLP146 P0009
                 T01830178 =
2018-05-27 08:12 METAR KSMQ 271212Z AUTO VRB04KT 4SM -RA BR BKN012 BKN050 OVC090 18/18 A2996 RMK
                 AO2 P0005 T01780178 =
2018-05-27 08:05 METAR KSMQ 271205Z AUTO VRB04KT 4SM -RA BR SCT012 BKN055 OVC090 18/18 A2996 RMK
                 AO2 P0004 T01830178 =
2018-05-27 07:58 METAR KSMQ 271158Z AUTO 2 1/2SM RA BR SCT011 BKN055 OVC090 18/18 A2996 RMK AO2
                 P0003 T01830178 =
2018-05-27 07:49 METAR KSMQ 271149Z AUTO 07007KT 3SM RA BR BKN011 BKN055 OVC075 18/18 A2995 RMK
                 AO2 LTG DSNT SE-SW TSB18E33 SLP143 P0017 60048 70048 T01830183 10211 20183 51028
                 =
2018-05-27 07:48 METAR KSMQ 271148Z AUTO 07007KT 3SM RA BR BKN011 BKN055 OVC070 18/18 A2996 RMK
                 AO2 LTG DSNT E-SW TSB18E33 P0017 =
2018-05-27 07:42 METAR KSMQ 271142Z AUTO 06006KT 3SM VCTS -RA BR SCT011 BKN060 OVC080 18/18 A2996
                 RMK AO2 LTG DSNT E-S TSB18E33 P0015 T01830183 =
2018-05-27 07:35 METAR KSMQ 271135Z AUTO 00000KT 2 1/2SM VCTS RA BR SCT011 BKN055 OVC070 18/18
                 A2996 RMK AO2 LTG DSNT E-SW TSB18E33 PRESRR P0014 T01830183 =
2018-05-27 07:24 METAR KSMQ 271124Z AUTO 03006KT 3SM -TSRA BR FEW011 SCT049 OVC075 19/18 A2994
                 RMK AO2 LTG DSNT SE-SW TSB18 P0012 T01890183 =
2018-05-27 07:15 METAR KSMQ 271115Z AUTO VRB06KT 2 1/2SM RA BR FEW012 SCT042 OVC075 19/18 A2993
                 RMK AO2 LTG DSNT SE AND S P0011 T01890183 =
2018-05-27 06:53 METAR KSMQ 271053Z AUTO 06007KT 1 3/4SM +RA BR SCT009 BKN031 OVC044 18/18 A2994
                 RMK AO2 LTG DSNT SE AND SW SLP135 P0008 T01830183 =
2018-05-27 06:49 METAR KSMQ 271049Z AUTO 07007KT 040V100 2 1/2SM RA BR SCT009 BKN019 OVC042 18/18
                 A2994 RMK AO2 LTG DSNT SE AND SW P0005 =
2018-05-27 05:53 METAR KSMQ 270953Z AUTO 08004KT 4SM RA BR BKN010 OVC029 21/21 A2990 RMK AO2 LTG
                 DSNT SE-SW TSE01 SLP122 P0015 T02060206 =
2018-05-27 05:37 METAR KSMQ 270937Z AUTO 05004KT 7SM -RA FEW011 BKN024 OVC031 21/21 A2988 RMK AO2
                 LTG DSNT ALQDS TSE01 P0012 T02060206 =
2018-05-27 05:28 METAR KSMQ 270928Z AUTO 05007KT 6SM -RA BR FEW013 SCT023 OVC031 21/21 A2987 RMK
                 AO2 LTG DSNT ALQDS TSE01 P0012 T02060206 =
2018-05-27 05:19 METAR KSMQ 270919Z AUTO 00000KT 4SM VCTS RA BR FEW012 BKN026 OVC042 21/21 A2988
                 RMK AO2 LTG DSNT E-SW TSE01 P0012 T02060206 =
2018-05-27 05:10 METAR KSMQ 270910Z AUTO 01003KT 2 1/2SM VCTS RA BR SCT012 BKN019 OVC046 21/21
                 A2988 RMK AO2 LTG DSNT ALQDS TSE01 P0010 T02060206 =
2018-05-27 05:01 METAR KSMQ 270901Z AUTO 03006KT 1 1/2SM VCTS +RA BR FEW012 OVC042 20/20 A2987
                 RMK AO2 LTG DSNT E-SW TSE01 P0006 T02000200 =
2018-05-27 04:53 METAR KSMQ 270853Z AUTO 00000KT 2 1/2SM TSRA BR FEW010 BKN039 OVC080 20/20 A2987
                 RMK AO2 LTG DSNT E AND SE RAB33 TSB19E34B39 SLP114 P0007 60008 T02000200 53008 =
2018-05-27 04:25 METAR KSMQ 270825Z AUTO 15004KT 4SM TS BR BKN055 BKN110 19/19 A2986 RMK AO2 LTG
                 DSNT SE-SW TSB19 T01940194 =
2018-05-27 03:53 METAR KSMQ 270753Z AUTO 00000KT 5SM VCTS BR SCT090 BKN120 19/19 A2985 RMK AO2
                 LTG DSNT SE RAE23 SLP106 P0001 T01940194 =
2018-05-27 02:53 METAR KSMQ 270653Z AUTO 32004KT 8SM -RA FEW060 BKN100 21/19 A2986 RMK AO2 LTG
                 DSNT N AND SE AND NW RAB53 SLP109 P0000 T02060194 =
2018-05-27 01:53 METAR KSMQ 270553Z AUTO 00000KT 8SM CLR 20/19 A2985 RMK AO2 SLP105 T02000194
                 10261 20200 50000 =
2018-05-27 00:53 METAR KSMQ 270453Z AUTO 00000KT 8SM FEW120 20/20 A2986 RMK AO2 SLP110 T02000200
                 403220161 =
2018-05-26 23:53 METAR KSMQ 270353Z AUTO 00000KT 8SM CLR 21/20 A2986 RMK AO2 SLP109 T02060200 =
2018-05-26 22:53 METAR KSMQ 270253Z AUTO 31003KT 8SM FEW070 22/21 A2985 RMK AO2 SLP105 T02170211
                 51017 =
2018-05-26 21:53 METAR KSMQ 270153Z AUTO 00000KT 8SM SCT080 23/21 A2984 RMK AO2 SLP103 T02330211
                 =
2018-05-26 20:53 METAR KSMQ 270053Z AUTO 00000KT 10SM CLR 24/22 A2981 RMK AO2 SLP093 T02390217 =
2018-05-26 19:53 METAR KSMQ 262353Z AUTO 00000KT 9SM CLR 26/22 A2980 RMK AO2 SLP089 T02560222
                 10322 20256 53010 =
2018-05-26 18:53 METAR KSMQ 262253Z AUTO 00000KT 9SM CLR 30/21 A2978 RMK AO2 LTG DSNT SE SLP081
                 T03000211 =
2018-05-26 17:53 METAR KSMQ 262153Z AUTO 18004KT 10SM CLR 29/22 A2977 RMK AO2 SLP079 T02890222 =
2018-05-26 17:31 METAR KSMQ 262131Z AUTO 00000KT 10SM CLR 32/18 A2977 RMK AO2 LTG DSNT E AND SE
                 T03170183 =
2018-05-26 17:11 METAR KSMQ 262111Z AUTO 00000KT 10SM VCTS FEW080 31/19 A2977 RMK AO2 T03110194 =
2018-05-26 16:53 METAR KSMQ 262053Z AUTO VRB03KT 10SM SCT080 BKN090 31/20 A2977 RMK AO2 SLP080
                 T03110200 55006 =
2018-05-26 15:53 METAR KSMQ 261953Z AUTO 00000KT 10SM FEW055 SCT070 SCT095 31/20 A2976 RMK AO2
                 SLP078 T03060200 =
2018-05-26 14:53 METAR KSMQ 261853Z AUTO VRB04KT 10SM CLR 32/19 A2978 RMK AO2 SLP081 T03170189 =
2018-05-26 13:53 METAR KSMQ 261753Z AUTO 21007KT 190V260 10SM CLR 31/19 A2979 RMK AO2 SLP085
                 T03110194 10317 20228 56014 =
2018-05-26 12:53 METAR KSMQ 261653Z AUTO 25004KT 10SM CLR 30/19 A2980 RMK AO2 SLP090 T03000189 =
2018-05-26 11:53 METAR KSMQ 261553Z AUTO 00000KT 10SM CLR 29/20 A2981 RMK AO2 SLP093 T02890200 =
2018-05-26 10:53 METAR KSMQ 261453Z AUTO 29004KT 10SM FEW110 28/22 A2983 RMK AO2 SLP099 T02780217
                 50000 =
2018-05-26 09:53 METAR KSMQ 261353Z AUTO VRB03KT 9SM CLR 27/21 A2983 RMK AO2 SLP101 T02670211 =

Support USWX by starting your Amazon purchase here.